Time;durP1;ratioP1;P1;durP2;ratioP2;P2;SDS_P1;SDS_P2;PMS_P1;PMS_P2;Temp;Humidity;BMP_temperature;BMP_pressure;BME280_temperature;BME280_humidity;BME280_pressure;Samples;Min_cycle;Max_cycle;Signal;HPM_P1;HPM_P2
2021/09/19 00:00:39;;;;;;;9.349999;7.9;;;;;;;9.21;80.27734;94995.81;;;;
2021/09/19 00:01:40;;;;;;;9.349999;7.9;;;;;;;9.21;80.27734;94995.81;;;;
2021/09/19 00:02:41;;;;;;;9.349999;7.9;;;;;;;9.21;80.27734;94995.81;;;;
2021/09/19 00:03:41;;;;;;;9.349999;7.9;;;;;;;9.21;80.27734;94995.81;;;;
2021/09/19 00:04:42;;;;;;;9.349999;7.9;;;;;;;9.21;80.27734;94995.81;;;;
2021/09/19 00:05:42;;;;;;;9.349999;7.9;;;;;;;9.21;80.27734;94995.81;;;;
2021/09/19 00:06:43;;;;;;;9;7.950001;;;;;;;9.12;80.46387;94984.55;;;;
2021/09/19 00:07:43;;;;;;;9;7.950001;;;;;;;9.12;80.46387;94984.55;;;;
2021/09/19 00:08:45;;;;;;;9;7.950001;;;;;;;9.12;80.46387;94984.55;;;;
2021/09/19 00:09:45;;;;;;;9;7.950001;;;;;;;9.12;80.46387;94984.55;;;;
2021/09/19 00:10:46;;;;;;;9;7.950001;;;;;;;9.12;80.46387;94984.55;;;;
2021/09/19 00:11:46;;;;;;;9;7.950001;;;;;;;9.12;80.46387;94984.55;;;;
2021/09/19 00:12:47;;;;;;;9;7.950001;;;;;;;9.12;80.46387;94984.55;;;;
2021/09/19 00:13:48;;;;;;;9;7.950001;;;;;;;9.12;80.46387;94984.55;;;;
2021/09/19 00:14:49;;;;;;;9;7.950001;;;;;;;9.12;80.46387;94984.55;;;;
2021/09/19 00:15:50;;;;;;;9;7.950001;;;;;;;9.12;80.46387;94984.55;;;;
2021/09/19 00:16:51;;;;;;;9.4;7.4;;;;;;;8.99;80.68652;94981.56;;;;
2021/09/19 00:17:51;;;;;;;9.4;7.4;;;;;;;8.99;80.68652;94981.56;;;;
2021/09/19 00:18:52;;;;;;;9.4;7.4;;;;;;;8.99;80.68652;94981.56;;;;
2021/09/19 00:19:52;;;;;;;9.4;7.4;;;;;;;8.99;80.68652;94981.56;;;;
2021/09/19 00:20:53;;;;;;;9.4;7.4;;;;;;;8.99;80.68652;94981.56;;;;
2021/09/19 00:21:53;;;;;;;9.4;7.4;;;;;;;8.99;80.68652;94981.56;;;;
2021/09/19 00:22:54;;;;;;;9.4;7.4;;;;;;;8.99;80.68652;94981.56;;;;
2021/09/19 00:23:54;;;;;;;9.4;7.4;;;;;;;8.99;80.68652;94981.56;;;;
2021/09/19 00:24:55;;;;;;;9.4;7.4;;;;;;;8.99;80.68652;94981.56;;;;
2021/09/19 00:25:55;;;;;;;9.4;7.4;;;;;;;8.99;80.68652;94981.56;;;;
2021/09/19 00:26:55;;;;;;;9.4;7.4;;;;;;;8.99;80.68652;94981.56;;;;
2021/09/19 00:27:56;;;;;;;10;7.2;;;;;;;8.88;80.98242;94973.49;;;;
2021/09/19 00:28:56;;;;;;;10;7.2;;;;;;;8.88;80.98242;94973.49;;;;
2021/09/19 00:29:57;;;;;;;10;7.2;;;;;;;8.88;80.98242;94973.49;;;;
2021/09/19 00:30:57;;;;;;;10;7.2;;;;;;;8.88;80.98242;94973.49;;;;
2021/09/19 00:31:58;;;;;;;10;7.2;;;;;;;8.88;80.98242;94973.49;;;;
2021/09/19 00:32:59;;;;;;;10;7.2;;;;;;;8.88;80.98242;94973.49;;;;
2021/09/19 00:33:59;;;;;;;10;7.2;;;;;;;8.88;80.98242;94973.49;;;;
2021/09/19 00:35:01;;;;;;;10;7.2;;;;;;;8.88;80.98242;94973.49;;;;
2021/09/19 00:36:02;;;;;;;10;7.2;;;;;;;8.88;80.98242;94973.49;;;;
2021/09/19 00:37:03;;;;;;;10;7.2;;;;;;;8.88;80.98242;94973.49;;;;
2021/09/19 00:38:04;;;;;;;8.6;7.349999;;;;;;;8.74;81.19141;94963.45;;;;
2021/09/19 00:39:05;;;;;;;8.6;7.349999;;;;;;;8.74;81.19141;94963.45;;;;
2021/09/19 00:40:05;;;;;;;8.6;7.349999;;;;;;;8.74;81.19141;94963.45;;;;
2021/09/19 00:41:07;;;;;;;8.6;7.349999;;;;;;;8.74;81.19141;94963.45;;;;
2021/09/19 00:42:08;;;;;;;8.6;7.349999;;;;;;;8.74;81.19141;94963.45;;;;
2021/09/19 00:43:09;;;;;;;8.6;7.349999;;;;;;;8.74;81.19141;94963.45;;;;
2021/09/19 00:44:10;;;;;;;8.6;7.349999;;;;;;;8.74;81.19141;94963.45;;;;
2021/09/19 00:45:10;;;;;;;8.6;7.349999;;;;;;;8.74;81.19141;94963.45;;;;
2021/09/19 00:46:16;;;;;;;8.6;7.349999;;;;;;;8.74;81.19141;94963.45;;;;
2021/09/19 00:47:17;;;;;;;8.6;7.349999;;;;;;;8.74;81.19141;94963.45;;;;
2021/09/19 00:48:17;;;;;;;8.6;7.349999;;;;;;;8.74;81.19141;94963.45;;;;
2021/09/19 00:49:18;;;;;;;10.1;8.350001;;;;;;;8.54;81.55859;94958.53;;;;
2021/09/19 00:50:19;;;;;;;10.1;8.350001;;;;;;;8.54;81.55859;94958.53;;;;
2021/09/19 00:51:22;;;;;;;10.1;8.350001;;;;;;;8.54;81.55859;94958.53;;;;
2021/09/19 00:52:22;;;;;;;10.1;8.350001;;;;;;;8.54;81.55859;94958.53;;;;
2021/09/19 00:53:23;;;;;;;10.1;8.350001;;;;;;;8.54;81.55859;94958.53;;;;
2021/09/19 00:54:24;;;;;;;10.1;8.350001;;;;;;;8.54;81.55859;94958.53;;;;
2021/09/19 00:55:25;;;;;;;10.1;8.350001;;;;;;;8.54;81.55859;94958.53;;;;
2021/09/19 00:56:25;;;;;;;10.1;8.350001;;;;;;;8.54;81.55859;94958.53;;;;
2021/09/19 00:57:28;;;;;;;10.1;8.350001;;;;;;;8.54;81.55859;94958.53;;;;
2021/09/19 00:58:30;;;;;;;10.1;8.350001;;;;;;;8.54;81.55859;94958.53;;;;
2021/09/19 00:59:30;;;;;;;10.15;7.6;;;;;;;8.39;81.9873;94951.4;;;;
2021/09/19 01:00:32;;;;;;;10.15;7.6;;;;;;;8.39;81.9873;94951.4;;;;
2021/09/19 01:01:32;;;;;;;10.15;7.6;;;;;;;8.39;81.9873;94951.4;;;;
2021/09/19 01:02:33;;;;;;;10.15;7.6;;;;;;;8.39;81.9873;94951.4;;;;
2021/09/19 01:03:34;;;;;;;10.15;7.6;;;;;;;8.39;81.9873;94951.4;;;;
2021/09/19 01:04:35;;;;;;;10.15;7.6;;;;;;;8.39;81.9873;94951.4;;;;
2021/09/19 01:05:36;;;;;;;10.15;7.6;;;;;;;8.39;81.9873;94951.4;;;;
2021/09/19 01:06:37;;;;;;;10.15;7.6;;;;;;;8.39;81.9873;94951.4;;;;
2021/09/19 01:07:38;;;;;;;10.15;7.6;;;;;;;8.39;81.9873;94951.4;;;;
2021/09/19 01:08:42;;;;;;;10.15;7.6;;;;;;;8.39;81.9873;94951.4;;;;
2021/09/19 01:09:44;;;;;;;10.15;7.6;;;;;;;8.39;81.9873;94951.4;;;;
2021/09/19 01:10:46;;;;;;;9.15;7.599999;;;;;;;8.32;82.11328;94947.49;;;;
2021/09/19 01:11:47;;;;;;;9.15;7.599999;;;;;;;8.32;82.11328;94947.49;;;;
2021/09/19 01:12:48;;;;;;;9.15;7.599999;;;;;;;8.32;82.11328;94947.49;;;;
2021/09/19 01:13:51;;;;;;;9.15;7.599999;;;;;;;8.32;82.11328;94947.49;;;;
2021/09/19 01:14:53;;;;;;;9.15;7.599999;;;;;;;8.32;82.11328;94947.49;;;;
2021/09/19 01:15:58;;;;;;;9.15;7.599999;;;;;;;8.32;82.11328;94947.49;;;;
2021/09/19 01:16:58;;;;;;;9.15;7.599999;;;;;;;8.32;82.11328;94947.49;;;;
2021/09/19 01:17:59;;;;;;;9.15;7.599999;;;;;;;8.32;82.11328;94947.49;;;;
2021/09/19 01:19:00;;;;;;;9.15;7.599999;;;;;;;8.32;82.11328;94947.49;;;;
2021/09/19 01:20:04;;;;;;;9.15;7.599999;;;;;;;8.32;82.11328;94947.49;;;;
2021/09/19 01:21:06;;;;;;;9.500001;7.700001;;;;;;;8.18;82.32031;94937.95;;;;
2021/09/19 01:22:08;;;;;;;9.500001;7.700001;;;;;;;8.18;82.32031;94937.95;;;;
2021/09/19 01:23:09;;;;;;;9.500001;7.700001;;;;;;;8.18;82.32031;94937.95;;;;
2021/09/19 01:24:12;;;;;;;9.500001;7.700001;;;;;;;8.18;82.32031;94937.95;;;;
2021/09/19 01:25:12;;;;;;;9.500001;7.700001;;;;;;;8.18;82.32031;94937.95;;;;
2021/09/19 01:26:15;;;;;;;9.500001;7.700001;;;;;;;8.18;82.32031;94937.95;;;;
2021/09/19 01:27:17;;;;;;;9.500001;7.700001;;;;;;;8.18;82.32031;94937.95;;;;
2021/09/19 01:28:18;;;;;;;9.500001;7.700001;;;;;;;8.18;82.32031;94937.95;;;;
2021/09/19 01:29:18;;;;;;;9.500001;7.700001;;;;;;;8.18;82.32031;94937.95;;;;
2021/09/19 01:30:19;;;;;;;9.500001;7.700001;;;;;;;8.18;82.32031;94937.95;;;;
2021/09/19 01:31:19;;;;;;;10.35;7.249999;;;;;;;8.05;82.71973;94939.48;;;;
2021/09/19 01:32:22;;;;;;;10.35;7.249999;;;;;;;8.05;82.71973;94939.48;;;;
2021/09/19 01:33:22;;;;;;;10.35;7.249999;;;;;;;8.05;82.71973;94939.48;;;;
2021/09/19 01:34:23;;;;;;;10.35;7.249999;;;;;;;8.05;82.71973;94939.48;;;;
2021/09/19 01:35:24;;;;;;;10.35;7.249999;;;;;;;8.05;82.71973;94939.48;;;;
2021/09/19 01:36:25;;;;;;;10.35;7.249999;;;;;;;8.05;82.71973;94939.48;;;;
2021/09/19 01:37:25;;;;;;;10.35;7.249999;;;;;;;8.05;82.71973;94939.48;;;;
2021/09/19 01:38:26;;;;;;;10.35;7.249999;;;;;;;8.05;82.71973;94939.48;;;;
2021/09/19 01:39:26;;;;;;;10.35;7.249999;;;;;;;8.05;82.71973;94939.48;;;;
2021/09/19 01:40:27;;;;;;;10.35;7.249999;;;;;;;8.05;82.71973;94939.48;;;;
2021/09/19 01:41:28;;;;;;;10.35;7.249999;;;;;;;8.05;82.71973;94939.48;;;;
2021/09/19 01:42:28;;;;;;;9.549999;7.65;;;;;;;8.02;82.8418;94931.46;;;;
2021/09/19 01:43:29;;;;;;;9.549999;7.65;;;;;;;8.02;82.8418;94931.46;;;;
2021/09/19 01:44:31;;;;;;;9.549999;7.65;;;;;;;8.02;82.8418;94931.46;;;;
2021/09/19 01:45:32;;;;;;;9.549999;7.65;;;;;;;8.02;82.8418;94931.46;;;;
2021/09/19 01:46:33;;;;;;;9.549999;7.65;;;;;;;8.02;82.8418;94931.46;;;;
2021/09/19 01:47:34;;;;;;;9.549999;7.65;;;;;;;8.02;82.8418;94931.46;;;;
2021/09/19 01:48:35;;;;;;;9.549999;7.65;;;;;;;8.02;82.8418;94931.46;;;;
2021/09/19 01:49:37;;;;;;;9.549999;7.65;;;;;;;8.02;82.8418;94931.46;;;;
2021/09/19 01:50:44;;;;;;;9.549999;7.65;;;;;;;8.02;82.8418;94931.46;;;;
2021/09/19 01:51:45;;;;;;;9.549999;7.65;;;;;;;8.02;82.8418;94931.46;;;;
2021/09/19 01:52:45;;;;;;;8.299999;7.299999;;;;;;;7.98;82.81152;94923.14;;;;
2021/09/19 01:53:48;;;;;;;8.299999;7.299999;;;;;;;7.98;82.81152;94923.14;;;;
2021/09/19 01:54:48;;;;;;;8.299999;7.299999;;;;;;;7.98;82.81152;94923.14;;;;
2021/09/19 01:55:49;;;;;;;8.299999;7.299999;;;;;;;7.98;82.81152;94923.14;;;;
2021/09/19 01:56:49;;;;;;;8.299999;7.299999;;;;;;;7.98;82.81152;94923.14;;;;
2021/09/19 01:57:50;;;;;;;8.299999;7.299999;;;;;;;7.98;82.81152;94923.14;;;;
2021/09/19 01:58:51;;;;;;;8.299999;7.299999;;;;;;;7.98;82.81152;94923.14;;;;
2021/09/19 01:59:54;;;;;;;8.299999;7.299999;;;;;;;7.98;82.81152;94923.14;;;;
2021/09/19 02:00:57;;;;;;;8.299999;7.299999;;;;;;;7.98;82.81152;94923.14;;;;
2021/09/19 02:02:00;;;;;;;8.299999;7.299999;;;;;;;7.98;82.81152;94923.14;;;;
2021/09/19 02:03:01;;;;;;;8.299999;7.299999;;;;;;;7.98;82.81152;94923.14;;;;
2021/09/19 02:04:02;;;;;;;8.650001;7.099999;;;;;;;7.89;82.91211;94901.56;;;;
2021/09/19 02:05:03;;;;;;;8.650001;7.099999;;;;;;;7.89;82.91211;94901.56;;;;
2021/09/19 02:06:07;;;;;;;8.650001;7.099999;;;;;;;7.89;82.91211;94901.56;;;;
2021/09/19 02:07:10;;;;;;;8.650001;7.099999;;;;;;;7.89;82.91211;94901.56;;;;
2021/09/19 02:08:10;;;;;;;8.650001;7.099999;;;;;;;7.89;82.91211;94901.56;;;;
2021/09/19 02:09:11;;;;;;;8.650001;7.099999;;;;;;;7.89;82.91211;94901.56;;;;
2021/09/19 02:10:11;;;;;;;8.650001;7.099999;;;;;;;7.89;82.91211;94901.56;;;;
2021/09/19 02:11:13;;;;;;;8.650001;7.099999;;;;;;;7.89;82.91211;94901.56;;;;
2021/09/19 02:12:16;;;;;;;8.650001;7.099999;;;;;;;7.89;82.91211;94901.56;;;;
2021/09/19 02:13:16;;;;;;;8.650001;7.099999;;;;;;;7.89;82.91211;94901.56;;;;
2021/09/19 02:14:17;;;;;;;11.1;8.550001;;;;;;;7.82;83.08789;94896.91;;;;
2021/09/19 02:15:17;;;;;;;11.1;8.550001;;;;;;;7.82;83.08789;94896.91;;;;
2021/09/19 02:16:20;;;;;;;11.1;8.550001;;;;;;;7.82;83.08789;94896.91;;;;
2021/09/19 02:17:21;;;;;;;11.1;8.550001;;;;;;;7.82;83.08789;94896.91;;;;
2021/09/19 02:18:21;;;;;;;11.1;8.550001;;;;;;;7.82;83.08789;94896.91;;;;
2021/09/19 02:19:22;;;;;;;11.1;8.550001;;;;;;;7.82;83.08789;94896.91;;;;
2021/09/19 02:20:22;;;;;;;11.1;8.550001;;;;;;;7.82;83.08789;94896.91;;;;
2021/09/19 02:21:23;;;;;;;11.1;8.550001;;;;;;;7.82;83.08789;94896.91;;;;
2021/09/19 02:22:25;;;;;;;11.1;8.550001;;;;;;;7.82;83.08789;94896.91;;;;
2021/09/19 02:23:26;;;;;;;11.1;8.550001;;;;;;;7.82;83.08789;94896.91;;;;
2021/09/19 02:24:26;;;;;;;10.9;8.2;;;;;;;7.74;83.22266;94894.42;;;;
2021/09/19 02:25:27;;;;;;;10.9;8.2;;;;;;;7.74;83.22266;94894.42;;;;
2021/09/19 02:26:28;;;;;;;10.9;8.2;;;;;;;7.74;83.22266;94894.42;;;;
2021/09/19 02:27:28;;;;;;;10.9;8.2;;;;;;;7.74;83.22266;94894.42;;;;
2021/09/19 02:28:28;;;;;;;10.9;8.2;;;;;;;7.74;83.22266;94894.42;;;;
2021/09/19 02:29:29;;;;;;;10.9;8.2;;;;;;;7.74;83.22266;94894.42;;;;
2021/09/19 02:30:30;;;;;;;10.9;8.2;;;;;;;7.74;83.22266;94894.42;;;;
2021/09/19 02:31:31;;;;;;;10.9;8.2;;;;;;;7.74;83.22266;94894.42;;;;
2021/09/19 02:32:31;;;;;;;10.9;8.2;;;;;;;7.74;83.22266;94894.42;;;;
2021/09/19 02:33:32;;;;;;;10.9;8.2;;;;;;;7.74;83.22266;94894.42;;;;
2021/09/19 02:34:33;;;;;;;10.9;8.2;;;;;;;7.74;83.22266;94894.42;;;;
2021/09/19 02:35:34;;;;;;;9.9;7.649999;;;;;;;7.69;83.45508;94893.46;;;;
2021/09/19 02:36:40;;;;;;;9.9;7.649999;;;;;;;7.69;83.45508;94893.46;;;;
2021/09/19 02:37:41;;;;;;;9.9;7.649999;;;;;;;7.69;83.45508;94893.46;;;;
2021/09/19 02:38:42;;;;;;;9.9;7.649999;;;;;;;7.69;83.45508;94893.46;;;;
2021/09/19 02:39:43;;;;;;;9.9;7.649999;;;;;;;7.69;83.45508;94893.46;;;;
2021/09/19 02:40:43;;;;;;;9.9;7.649999;;;;;;;7.69;83.45508;94893.46;;;;
2021/09/19 02:41:45;;;;;;;9.9;7.649999;;;;;;;7.69;83.45508;94893.46;;;;
2021/09/19 02:42:45;;;;;;;9.9;7.649999;;;;;;;7.69;83.45508;94893.46;;;;
2021/09/19 02:43:47;;;;;;;9.9;7.649999;;;;;;;7.69;83.45508;94893.46;;;;
2021/09/19 02:44:48;;;;;;;9.9;7.649999;;;;;;;7.69;83.45508;94893.46;;;;
2021/09/19 02:45:48;;;;;;;10.85;8.000001;;;;;;;7.55;83.70508;94874.95;;;;
2021/09/19 02:46:50;;;;;;;10.85;8.000001;;;;;;;7.55;83.70508;94874.95;;;;
2021/09/19 02:47:50;;;;;;;10.85;8.000001;;;;;;;7.55;83.70508;94874.95;;;;
2021/09/19 02:48:51;;;;;;;10.85;8.000001;;;;;;;7.55;83.70508;94874.95;;;;
2021/09/19 02:49:52;;;;;;;10.85;8.000001;;;;;;;7.55;83.70508;94874.95;;;;
2021/09/19 02:50:52;;;;;;;10.85;8.000001;;;;;;;7.55;83.70508;94874.95;;;;
2021/09/19 02:51:53;;;;;;;10.85;8.000001;;;;;;;7.55;83.70508;94874.95;;;;
2021/09/19 02:52:53;;;;;;;10.85;8.000001;;;;;;;7.55;83.70508;94874.95;;;;
2021/09/19 02:53:53;;;;;;;10.85;8.000001;;;;;;;7.55;83.70508;94874.95;;;;
2021/09/19 02:54:54;;;;;;;10.85;8.000001;;;;;;;7.55;83.70508;94874.95;;;;
2021/09/19 02:55:54;;;;;;;10.85;8.000001;;;;;;;7.55;83.70508;94874.95;;;;
2021/09/19 02:56:55;;;;;;;11.85;8.6;;;;;;;7.51;83.92969;94860.85;;;;
2021/09/19 02:57:55;;;;;;;11.85;8.6;;;;;;;7.51;83.92969;94860.85;;;;
2021/09/19 02:58:56;;;;;;;11.85;8.6;;;;;;;7.51;83.92969;94860.85;;;;
2021/09/19 02:59:56;;;;;;;11.85;8.6;;;;;;;7.51;83.92969;94860.85;;;;
2021/09/19 03:00:57;;;;;;;11.85;8.6;;;;;;;7.51;83.92969;94860.85;;;;
2021/09/19 03:01:57;;;;;;;11.85;8.6;;;;;;;7.51;83.92969;94860.85;;;;
2021/09/19 03:02:58;;;;;;;11.85;8.6;;;;;;;7.51;83.92969;94860.85;;;;
2021/09/19 03:03:58;;;;;;;11.85;8.6;;;;;;;7.51;83.92969;94860.85;;;;
2021/09/19 03:04:59;;;;;;;11.85;8.6;;;;;;;7.51;83.92969;94860.85;;;;
2021/09/19 03:05:59;;;;;;;11.85;8.6;;;;;;;7.51;83.92969;94860.85;;;;
2021/09/19 03:07:00;;;;;;;11.85;8.6;;;;;;;7.51;83.92969;94860.85;;;;
2021/09/19 03:08:00;;;;;;;8.499999;7.249999;;;;;;;7.44;83.98047;94841.74;;;;
2021/09/19 03:09:01;;;;;;;8.499999;7.249999;;;;;;;7.44;83.98047;94841.74;;;;
2021/09/19 03:10:02;;;;;;;8.499999;7.249999;;;;;;;7.44;83.98047;94841.74;;;;
2021/09/19 03:11:04;;;;;;;8.499999;7.249999;;;;;;;7.44;83.98047;94841.74;;;;
2021/09/19 03:12:05;;;;;;;8.499999;7.249999;;;;;;;7.44;83.98047;94841.74;;;;
2021/09/19 03:13:06;;;;;;;8.499999;7.249999;;;;;;;7.44;83.98047;94841.74;;;;
2021/09/19 03:14:06;;;;;;;8.499999;7.249999;;;;;;;7.44;83.98047;94841.74;;;;
2021/09/19 03:15:07;;;;;;;8.499999;7.249999;;;;;;;7.44;83.98047;94841.74;;;;
2021/09/19 03:16:09;;;;;;;8.499999;7.249999;;;;;;;7.44;83.98047;94841.74;;;;
2021/09/19 03:17:09;;;;;;;8.499999;7.249999;;;;;;;7.44;83.98047;94841.74;;;;
2021/09/19 03:18:10;;;;;;;10.95;8.5;;;;;;;7.39;84.1084;94838.78;;;;
2021/09/19 03:19:10;;;;;;;10.95;8.5;;;;;;;7.39;84.1084;94838.78;;;;
2021/09/19 03:20:11;;;;;;;10.95;8.5;;;;;;;7.39;84.1084;94838.78;;;;
2021/09/19 03:21:15;;;;;;;10.95;8.5;;;;;;;7.39;84.1084;94838.78;;;;
2021/09/19 03:22:15;;;;;;;10.95;8.5;;;;;;;7.39;84.1084;94838.78;;;;
2021/09/19 03:23:16;;;;;;;10.95;8.5;;;;;;;7.39;84.1084;94838.78;;;;
2021/09/19 03:24:16;;;;;;;10.95;8.5;;;;;;;7.39;84.1084;94838.78;;;;
2021/09/19 03:25:17;;;;;;;10.95;8.5;;;;;;;7.39;84.1084;94838.78;;;;
2021/09/19 03:26:17;;;;;;;10.95;8.5;;;;;;;7.39;84.1084;94838.78;;;;
2021/09/19 03:27:18;;;;;;;10.95;8.5;;;;;;;7.39;84.1084;94838.78;;;;
2021/09/19 03:28:18;;;;;;;10.95;8.5;;;;;;;7.39;84.1084;94838.78;;;;
2021/09/19 03:29:20;;;;;;;14.55;10.05;;;;;;;7.34;84.25879;94820.78;;;;
2021/09/19 03:30:20;;;;;;;14.55;10.05;;;;;;;7.34;84.25879;94820.78;;;;
2021/09/19 03:31:21;;;;;;;14.55;10.05;;;;;;;7.34;84.25879;94820.78;;;;
2021/09/19 03:32:22;;;;;;;14.55;10.05;;;;;;;7.34;84.25879;94820.78;;;;
2021/09/19 03:33:22;;;;;;;14.55;10.05;;;;;;;7.34;84.25879;94820.78;;;;
2021/09/19 03:34:23;;;;;;;14.55;10.05;;;;;;;7.34;84.25879;94820.78;;;;
2021/09/19 03:35:23;;;;;;;14.55;10.05;;;;;;;7.34;84.25879;94820.78;;;;
2021/09/19 03:36:24;;;;;;;14.55;10.05;;;;;;;7.34;84.25879;94820.78;;;;
2021/09/19 03:37:24;;;;;;;14.55;10.05;;;;;;;7.34;84.25879;94820.78;;;;
2021/09/19 03:38:25;;;;;;;14.55;10.05;;;;;;;7.34;84.25879;94820.78;;;;
2021/09/19 03:39:25;;;;;;;13.55;10.35;;;;;;;7.3;84.4082;94808.87;;;;
2021/09/19 03:40:26;;;;;;;13.55;10.35;;;;;;;7.3;84.4082;94808.87;;;;
2021/09/19 03:41:27;;;;;;;13.55;10.35;;;;;;;7.3;84.4082;94808.87;;;;
2021/09/19 03:42:27;;;;;;;13.55;10.35;;;;;;;7.3;84.4082;94808.87;;;;
2021/09/19 03:43:28;;;;;;;13.55;10.35;;;;;;;7.3;84.4082;94808.87;;;;
2021/09/19 03:44:28;;;;;;;13.55;10.35;;;;;;;7.3;84.4082;94808.87;;;;
2021/09/19 03:45:29;;;;;;;13.55;10.35;;;;;;;7.3;84.4082;94808.87;;;;
2021/09/19 03:46:29;;;;;;;13.55;10.35;;;;;;;7.3;84.4082;94808.87;;;;
2021/09/19 03:47:30;;;;;;;13.55;10.35;;;;;;;7.3;84.4082;94808.87;;;;
2021/09/19 03:48:31;;;;;;;13.55;10.35;;;;;;;7.3;84.4082;94808.87;;;;
2021/09/19 03:49:31;;;;;;;13.55;10.35;;;;;;;7.3;84.4082;94808.87;;;;
2021/09/19 03:50:32;;;;;;;14.1;10.65;;;;;;;7.31;84.61328;94809.58;;;;
2021/09/19 03:51:33;;;;;;;14.1;10.65;;;;;;;7.31;84.61328;94809.58;;;;
2021/09/19 03:52:34;;;;;;;14.1;10.65;;;;;;;7.31;84.61328;94809.58;;;;
2021/09/19 03:53:34;;;;;;;14.1;10.65;;;;;;;7.31;84.61328;94809.58;;;;
2021/09/19 03:54:35;;;;;;;14.1;10.65;;;;;;;7.31;84.61328;94809.58;;;;
2021/09/19 03:55:35;;;;;;;14.1;10.65;;;;;;;7.31;84.61328;94809.58;;;;
2021/09/19 03:56:36;;;;;;;14.1;10.65;;;;;;;7.31;84.61328;94809.58;;;;
2021/09/19 03:57:36;;;;;;;14.1;10.65;;;;;;;7.31;84.61328;94809.58;;;;
2021/09/19 03:58:37;;;;;;;14.1;10.65;;;;;;;7.31;84.61328;94809.58;;;;
2021/09/19 03:59:37;;;;;;;14.1;10.65;;;;;;;7.31;84.61328;94809.58;;;;
2021/09/19 04:00:38;;;;;;;14.65;10.25;;;;;;;7.27;84.87891;94806.62;;;;
2021/09/19 04:01:38;;;;;;;14.65;10.25;;;;;;;7.27;84.87891;94806.62;;;;
2021/09/19 04:02:39;;;;;;;14.65;10.25;;;;;;;7.27;84.87891;94806.62;;;;
2021/09/19 04:03:40;;;;;;;14.65;10.25;;;;;;;7.27;84.87891;94806.62;;;;
2021/09/19 04:04:40;;;;;;;14.65;10.25;;;;;;;7.27;84.87891;94806.62;;;;
2021/09/19 04:05:41;;;;;;;14.65;10.25;;;;;;;7.27;84.87891;94806.62;;;;
2021/09/19 04:06:41;;;;;;;14.65;10.25;;;;;;;7.27;84.87891;94806.62;;;;
2021/09/19 04:07:42;;;;;;;14.65;10.25;;;;;;;7.27;84.87891;94806.62;;;;
2021/09/19 04:08:42;;;;;;;14.65;10.25;;;;;;;7.27;84.87891;94806.62;;;;
2021/09/19 04:09:43;;;;;;;14.65;10.25;;;;;;;7.27;84.87891;94806.62;;;;
2021/09/19 04:10:43;;;;;;;14.65;10.25;;;;;;;7.27;84.87891;94806.62;;;;
2021/09/19 04:11:44;;;;;;;15.3;11.25;;;;;;;7.26;85.34277;94813.47;;;;
2021/09/19 04:12:44;;;;;;;15.3;11.25;;;;;;;7.26;85.34277;94813.47;;;;
2021/09/19 04:13:45;;;;;;;15.3;11.25;;;;;;;7.26;85.34277;94813.47;;;;
2021/09/19 04:14:46;;;;;;;15.3;11.25;;;;;;;7.26;85.34277;94813.47;;;;
2021/09/19 04:15:46;;;;;;;15.3;11.25;;;;;;;7.26;85.34277;94813.47;;;;
2021/09/19 04:16:46;;;;;;;15.3;11.25;;;;;;;7.26;85.34277;94813.47;;;;
2021/09/19 04:17:47;;;;;;;15.3;11.25;;;;;;;7.26;85.34277;94813.47;;;;
2021/09/19 04:18:48;;;;;;;15.3;11.25;;;;;;;7.26;85.34277;94813.47;;;;
2021/09/19 04:19:48;;;;;;;15.3;11.25;;;;;;;7.26;85.34277;94813.47;;;;
2021/09/19 04:20:49;;;;;;;15.3;11.25;;;;;;;7.26;85.34277;94813.47;;;;
2021/09/19 04:21:49;;;;;;;15.3;11.25;;;;;;;7.26;85.34277;94813.47;;;;
2021/09/19 04:22:50;;;;;;;19.6;13.1;;;;;;;7.4;85.63379;94812.34;;;;
2021/09/19 04:23:50;;;;;;;19.6;13.1;;;;;;;7.4;85.63379;94812.34;;;;
2021/09/19 04:24:51;;;;;;;19.6;13.1;;;;;;;7.4;85.63379;94812.34;;;;
2021/09/19 04:25:52;;;;;;;19.6;13.1;;;;;;;7.4;85.63379;94812.34;;;;
2021/09/19 04:26:52;;;;;;;19.6;13.1;;;;;;;7.4;85.63379;94812.34;;;;
2021/09/19 04:27:53;;;;;;;19.6;13.1;;;;;;;7.4;85.63379;94812.34;;;;
2021/09/19 04:28:53;;;;;;;19.6;13.1;;;;;;;7.4;85.63379;94812.34;;;;
2021/09/19 04:29:54;;;;;;;19.6;13.1;;;;;;;7.4;85.63379;94812.34;;;;
2021/09/19 04:30:55;;;;;;;19.6;13.1;;;;;;;7.4;85.63379;94812.34;;;;
2021/09/19 04:31:55;;;;;;;19.6;13.1;;;;;;;7.4;85.63379;94812.34;;;;
2021/09/19 04:32:56;;;;;;;23.4;14.65;;;;;;;7.67;85.87793;94819.9;;;;
2021/09/19 04:33:57;;;;;;;23.4;14.65;;;;;;;7.67;85.87793;94819.9;;;;
2021/09/19 04:34:58;;;;;;;23.4;14.65;;;;;;;7.67;85.87793;94819.9;;;;
2021/09/19 04:35:58;;;;;;;23.4;14.65;;;;;;;7.67;85.87793;94819.9;;;;
2021/09/19 04:36:59;;;;;;;23.4;14.65;;;;;;;7.67;85.87793;94819.9;;;;
2021/09/19 04:38:00;;;;;;;23.4;14.65;;;;;;;7.67;85.87793;94819.9;;;;
2021/09/19 04:39:00;;;;;;;23.4;14.65;;;;;;;7.67;85.87793;94819.9;;;;
2021/09/19 04:40:01;;;;;;;23.4;14.65;;;;;;;7.67;85.87793;94819.9;;;;
2021/09/19 04:41:01;;;;;;;23.4;14.65;;;;;;;7.67;85.87793;94819.9;;;;
2021/09/19 04:42:02;;;;;;;23.4;14.65;;;;;;;7.67;85.87793;94819.9;;;;
2021/09/19 04:43:02;;;;;;;23.4;14.65;;;;;;;7.67;85.87793;94819.9;;;;
2021/09/19 04:44:03;;;;;;;39.15;21.25;;;;;;;7.96;85.99902;94815.44;;;;
2021/09/19 04:45:04;;;;;;;39.15;21.25;;;;;;;7.96;85.99902;94815.44;;;;
2021/09/19 04:46:05;;;;;;;39.15;21.25;;;;;;;7.96;85.99902;94815.44;;;;
2021/09/19 04:47:07;;;;;;;39.15;21.25;;;;;;;7.96;85.99902;94815.44;;;;
2021/09/19 04:48:08;;;;;;;39.15;21.25;;;;;;;7.96;85.99902;94815.44;;;;
2021/09/19 04:49:08;;;;;;;39.15;21.25;;;;;;;7.96;85.99902;94815.44;;;;
2021/09/19 04:50:09;;;;;;;39.15;21.25;;;;;;;7.96;85.99902;94815.44;;;;
2021/09/19 04:51:10;;;;;;;39.15;21.25;;;;;;;7.96;85.99902;94815.44;;;;
2021/09/19 04:52:10;;;;;;;39.15;21.25;;;;;;;7.96;85.99902;94815.44;;;;
2021/09/19 04:53:11;;;;;;;39.15;21.25;;;;;;;7.96;85.99902;94815.44;;;;
2021/09/19 04:54:11;;;;;;;41.2;23.15;;;;;;;8.22;86.14648;94821.7;;;;
2021/09/19 04:55:12;;;;;;;41.2;23.15;;;;;;;8.22;86.14648;94821.7;;;;
2021/09/19 04:56:13;;;;;;;41.2;23.15;;;;;;;8.22;86.14648;94821.7;;;;
2021/09/19 04:57:14;;;;;;;41.2;23.15;;;;;;;8.22;86.14648;94821.7;;;;
2021/09/19 04:58:15;;;;;;;41.2;23.15;;;;;;;8.22;86.14648;94821.7;;;;
2021/09/19 04:59:15;;;;;;;41.2;23.15;;;;;;;8.22;86.14648;94821.7;;;;
2021/09/19 05:00:16;;;;;;;41.2;23.15;;;;;;;8.22;86.14648;94821.7;;;;
2021/09/19 05:01:17;;;;;;;41.2;23.15;;;;;;;8.22;86.14648;94821.7;;;;
2021/09/19 05:02:17;;;;;;;41.2;23.15;;;;;;;8.22;86.14648;94821.7;;;;
2021/09/19 05:03:18;;;;;;;41.2;23.15;;;;;;;8.22;86.14648;94821.7;;;;
2021/09/19 05:04:18;;;;;;;41.2;23.15;;;;;;;8.22;86.14648;94821.7;;;;
2021/09/19 05:05:19;;;;;;;41.5;24.2;;;;;;;8.41;86.44922;94828.67;;;;
2021/09/19 05:06:19;;;;;;;41.5;24.2;;;;;;;8.41;86.44922;94828.67;;;;
2021/09/19 05:07:20;;;;;;;41.5;24.2;;;;;;;8.41;86.44922;94828.67;;;;
2021/09/19 05:08:21;;;;;;;41.5;24.2;;;;;;;8.41;86.44922;94828.67;;;;
2021/09/19 05:09:22;;;;;;;41.5;24.2;;;;;;;8.41;86.44922;94828.67;;;;
2021/09/19 05:10:23;;;;;;;41.5;24.2;;;;;;;8.41;86.44922;94828.67;;;;
2021/09/19 05:11:24;;;;;;;41.5;24.2;;;;;;;8.41;86.44922;94828.67;;;;
2021/09/19 05:12:24;;;;;;;41.5;24.2;;;;;;;8.41;86.44922;94828.67;;;;
2021/09/19 05:13:25;;;;;;;41.5;24.2;;;;;;;8.41;86.44922;94828.67;;;;
2021/09/19 05:14:25;;;;;;;41.5;24.2;;;;;;;8.41;86.44922;94828.67;;;;
2021/09/19 05:15:26;;;;;;;41.25;24.7;;;;;;;8.57;86.86133;94830.77;;;;
2021/09/19 05:16:26;;;;;;;41.25;24.7;;;;;;;8.57;86.86133;94830.77;;;;
2021/09/19 05:17:27;;;;;;;41.25;24.7;;;;;;;8.57;86.86133;94830.77;;;;
2021/09/19 05:18:27;;;;;;;41.25;24.7;;;;;;;8.57;86.86133;94830.77;;;;
2021/09/19 05:19:28;;;;;;;41.25;24.7;;;;;;;8.57;86.86133;94830.77;;;;
2021/09/19 05:20:29;;;;;;;41.25;24.7;;;;;;;8.57;86.86133;94830.77;;;;
2021/09/19 05:21:29;;;;;;;41.25;24.7;;;;;;;8.57;86.86133;94830.77;;;;
2021/09/19 05:22:30;;;;;;;41.25;24.7;;;;;;;8.57;86.86133;94830.77;;;;
2021/09/19 05:23:30;;;;;;;41.25;24.7;;;;;;;8.57;86.86133;94830.77;;;;
2021/09/19 05:24:31;;;;;;;41.25;24.7;;;;;;;8.57;86.86133;94830.77;;;;
2021/09/19 05:25:31;;;;;;;41.25;24.7;;;;;;;8.57;86.86133;94830.77;;;;
2021/09/19 05:26:32;;;;;;;46.64999;25.8;;;;;;;8.8;87.25879;94827.53;;;;
2021/09/19 05:27:33;;;;;;;46.64999;25.8;;;;;;;8.8;87.25879;94827.53;;;;
2021/09/19 05:28:33;;;;;;;46.64999;25.8;;;;;;;8.8;87.25879;94827.53;;;;
2021/09/19 05:29:33;;;;;;;46.64999;25.8;;;;;;;8.8;87.25879;94827.53;;;;
2021/09/19 05:30:34;;;;;;;46.64999;25.8;;;;;;;8.8;87.25879;94827.53;;;;
2021/09/19 05:31:35;;;;;;;46.64999;25.8;;;;;;;8.8;87.25879;94827.53;;;;
2021/09/19 05:32:35;;;;;;;46.64999;25.8;;;;;;;8.8;87.25879;94827.53;;;;
2021/09/19 05:33:36;;;;;;;46.64999;25.8;;;;;;;8.8;87.25879;94827.53;;;;
2021/09/19 05:34:36;;;;;;;46.64999;25.8;;;;;;;8.8;87.25879;94827.53;;;;
2021/09/19 05:35:37;;;;;;;46.64999;25.8;;;;;;;8.8;87.25879;94827.53;;;;
2021/09/19 05:36:37;;;;;;;42.49999;27.1;;;;;;;9.07;87.46191;94848.02;;;;
2021/09/19 05:37:38;;;;;;;42.49999;27.1;;;;;;;9.07;87.46191;94848.02;;;;
2021/09/19 05:38:39;;;;;;;42.49999;27.1;;;;;;;9.07;87.46191;94848.02;;;;